Holbrook, Arizona
Current Conditions -  °F | °C
As of 6:56 PM on Wednesday 17 Dec 2014 (Local Time) from KINW Reporting Station
Broken Clouds Broken Clouds  
Wind Chill:   Ceiling: 7000
Heat Index:   Visibility: 10mi
Dew Point:   Wind: 8mph
Humidity: 76%   Direction: 230°SW
Pressure: 30.07"   Gusts: NA
Location:  34.9°N, 110.16°W
Report Text: KINW 180156Z AUTO 23007KT 10SM BKN070 04/00 A3007 RMK AO2 SLP181 T00390000
Loading
Personal Weather Stations






























Interactive Weather Map New forecast layout! Learn more

10-Day Weather Forecast

Advertisements
Track Severe Weather on mobile